Time;durP1;ratioP1;P1;durP2;ratioP2;P2;SDS_P1;SDS_P2;PMS_P1;PMS_P2;Temp;Humidity;BMP_temperature;BMP_pressure;BME280_temperature;BME280_humidity;BME280_pressure;Samples;Min_cycle;Max_cycle;Signal;HPM_P1;HPM_P2
2022/11/16 00:05:22;;;;;;;12.07;8.20;;;12.80;89.00;;;;;;11017452;32;20014;-74
2022/11/16 00:11:24;;;;;;;13.15;8.05;;;12.80;89.00;;;;;;11020334;32;20044;-73
2022/11/16 00:17:25;;;;;;;14.25;10.70;;;12.80;88.90;;;;;;11020072;32;20018;-74
2022/11/16 00:23:28;;;;;;;15.07;10.88;;;12.80;88.90;;;;;;11023067;26;20073;-73
2022/11/16 00:29:30;;;;;;;17.77;12.30;;;12.80;89.00;;;;;;11019106;32;20329;-73
2022/11/16 00:35:39;;;;;;;14.15;10.25;;;12.80;89.00;;;;;;11019344;32;20017;-73
2022/11/16 00:41:42;;;;;;;12.02;9.90;;;12.80;89.10;;;;;;11019189;32;20019;-74
2022/11/16 00:47:44;;;;;;;14.52;10.73;;;12.80;89.10;;;;;;11018874;32;20041;-74
2022/11/16 00:53:46;;;;;;;15.35;9.90;;;12.80;89.10;;;;;;11018791;32;20022;-74
2022/11/16 00:59:48;;;;;;;15.43;10.63;;;12.80;89.10;;;;;;11018388;32;20079;-73
2022/11/16 01:05:50;;;;;;;15.45;11.32;;;12.80;89.20;;;;;;11018371;32;20013;-73
2022/11/16 01:12:07;;;;;;;12.05;7.78;;;12.70;89.40;;;;;;11018205;32;20044;-73
2022/11/16 01:18:09;;;;;;;12.32;8.80;;;12.70;89.40;;;;;;11017460;32;20022;-74
2022/11/16 01:24:11;;;;;;;14.82;9.15;;;12.70;89.50;;;;;;11017805;32;20014;-74
2022/11/16 01:30:14;;;;;;;12.75;8.63;;;12.80;89.30;;;;;;11017572;32;20026;-74
2022/11/16 01:36:17;;;;;;;10.15;7.28;;;12.80;89.20;;;;;;11017524;32;20037;-74
2022/11/16 01:42:27;;;;;;;12.63;9.45;;;12.80;89.20;;;;;;11017422;32;20030;-74
2022/11/16 01:48:30;;;;;;;12.82;9.35;;;12.70;89.20;;;;;;11017352;32;20018;-73
2022/11/16 01:54:37;;;;;;;15.02;8.63;;;12.80;89.10;;;;;;11017310;32;20033;-73
2022/11/16 02:00:41;;;;;;;13.30;8.45;;;12.80;89.00;;;;;;11016399;32;20022;-73
2022/11/16 02:06:53;;;;;;;10.77;7.25;;;12.70;89.00;;;;;;11017008;32;20018;-73
2022/11/16 02:13:25;;;;;;;12.15;7.75;;;12.70;89.10;;;;;;11016933;32;20010;-74
2022/11/16 02:19:46;;;;;;;11.57;7.62;;;12.70;89.10;;;;;;11016889;32;20061;-74
2022/11/16 02:26:12;;;;;;;12.40;9.65;;;12.70;89.10;;;;;;11016836;32;20058;-74
2022/11/16 02:32:36;;;;;;;12.20;8.00;;;12.70;89.10;;;;;;11023517;32;20022;-74
2022/11/16 02:38:40;;;;;;;13.77;8.68;;;12.80;89.10;;;;;;11023422;32;20437;-74
2022/11/16 02:44:46;;;;;;;12.40;7.68;;;12.70;89.00;;;;;;11023555;32;20018;-73
2022/11/16 02:50:53;;;;;;;16.20;11.00;;;12.70;89.10;;;;;;11023369;32;20476;-73
2022/11/16 02:57:01;;;;;;;12.15;9.10;;;12.80;89.20;;;;;;11023049;32;20409;-73
2022/11/16 03:03:15;;;;;;;12.70;9.43;;;12.80;89.10;;;;;;11022895;32;20036;-72
2022/11/16 03:09:24;;;;;;;12.90;8.63;;;12.80;89.10;;;;;;11022499;32;20014;-72
2022/11/16 03:15:27;;;;;;;18.20;11.95;;;12.80;89.10;;;;;;11022441;32;20452;-72
2022/11/16 03:22:11;;;;;;;12.37;8.82;;;12.80;89.10;;;;;;11018241;32;20084;-72
2022/11/16 03:28:41;;;;;;;16.30;12.60;;;12.80;89.10;;;;;;10830876;32;20050;-72
2022/11/16 03:34:55;;;;;;;12.88;9.63;;;12.80;89.20;;;;;;10829927;32;20319;-73
2022/11/16 03:41:02;;;;;;;15.60;11.82;;;12.80;89.20;;;;;;10828810;32;20040;-72
2022/11/16 03:47:05;;;;;;;13.65;11.15;;;12.80;89.20;;;;;;10817375;32;20047;-73
2022/11/16 03:53:07;;;;;;;13.32;8.52;;;12.80;89.10;;;;;;10829124;32;20320;-73
2022/11/16 03:59:11;;;;;;;16.35;11.50;;;12.80;89.10;;;;;;10834503;32;20062;-73
2022/11/16 04:24:24;;;;;;;17.42;13.38;;;12.80;89.30;;;;;;11019770;32;20026;-73
2022/11/16 04:37:47;;;;;;;;;;;12.80;89.30;;;;;;11019878;32;20402;-73
2022/11/16 04:43:24;;;;;;;15.55;10.73;;;12.70;89.40;;;;;;11020377;32;20378;-72
2022/11/16 04:49:27;;;;;;;11.82;8.52;;;12.70;89.40;;;;;;11019108;32;20346;-72
2022/11/16 04:55:31;;;;;;;16.50;12.43;;;12.80;89.50;;;;;;11004434;32;20053;-73
2022/11/16 05:07:55;;;;;;;15.07;10.20;;;12.70;89.50;;;;;;11018540;32;20314;-74
2022/11/16 05:13:57;;;;;;;13.27;8.43;;;12.60;89.40;;;;;;11018191;32;20296;-73
2022/11/16 05:26:22;;;;;;;13.88;9.73;;;12.70;89.60;;;;;;11017763;32;20026;-73
2022/11/16 05:32:26;;;;;;;13.82;9.50;;;12.60;89.60;;;;;;11017610;32;20325;-73
2022/11/16 05:38:30;;;;;;;13.73;9.90;;;12.70;89.50;;;;;;11017504;32;20030;-73
2022/11/16 05:44:33;;;;;;;17.10;11.77;;;12.70;89.50;;;;;;11017374;32;20453;-73
2022/11/16 05:50:35;;;;;;;15.50;8.43;;;12.70;89.50;;;;;;11017166;32;20035;-72
2022/11/16 05:56:38;;;;;;;19.08;9.60;;;12.70;89.60;;;;;;11017056;32;20029;-72
2022/11/16 06:02:45;;;;;;;16.67;12.32;;;12.90;89.50;;;;;;11018034;32;20022;-72
2022/11/16 06:08:49;;;;;;;15.35;10.02;;;13.20;89.40;;;;;;11023627;32;20054;-72
2022/11/16 06:14:51;;;;;;;22.42;17.92;;;13.30;89.30;;;;;;11024547;32;20022;-72
2022/11/16 06:20:54;;;;;;;16.33;12.00;;;13.40;89.10;;;;;;11010514;32;20080;-71
2022/11/16 06:26:57;;;;;;;14.32;8.70;;;13.20;89.10;;;;;;11024160;32;20026;-71
2022/11/16 06:32:59;;;;;;;11.48;8.27;;;13.10;89.30;;;;;;11012032;32;20057;-71
2022/11/16 06:39:02;;;;;;;12.65;8.48;;;13.20;89.50;;;;;;11023724;32;20414;-72
2022/11/16 06:45:05;;;;;;;12.40;8.27;;;13.20;89.50;;;;;;10990671;32;20034;-72
2022/11/16 06:51:10;;;;;;;12.73;8.60;;;13.30;89.40;;;;;;10984950;32;20041;-72
2022/11/16 06:57:12;;;;;;;15.68;9.65;;;13.40;89.20;;;;;;10984799;32;20051;-72
2022/11/16 07:03:14;;;;;;;14.73;9.05;;;13.50;89.00;;;;;;10995755;32;20026;-72
2022/11/16 07:09:18;;;;;;;11.45;8.27;;;13.60;88.90;;;;;;11007149;32;20319;-73
2022/11/16 07:15:21;;;;;;;10.88;6.72;;;13.70;88.70;;;;;;11000883;32;20038;-73
2022/11/16 07:21:24;;;;;;;11.07;6.37;;;13.70;88.60;;;;;;10989472;32;20030;-74
2022/11/16 07:27:27;;;;;;;8.50;5.05;;;13.60;88.30;;;;;;11007488;32;20397;-74
2022/11/16 07:33:29;;;;;;;7.85;5.40;;;13.20;88.70;;;;;;11021838;32;20061;-74
2022/11/16 07:39:35;;;;;;;9.95;6.47;;;13.20;89.10;;;;;;11008857;32;20040;-74
2022/11/16 07:46:06;;;;;;;10.75;6.75;;;13.10;88.80;;;;;;11017059;32;20058;-74
2022/11/16 07:52:09;;;;;;;12.93;7.62;;;13.00;88.80;;;;;;11003632;32;20050;-74
2022/11/16 07:58:12;;;;;;;11.00;7.50;;;13.00;88.90;;;;;;10982775;32;20053;-74
2022/11/16 08:04:16;;;;;;;22.30;17.25;;;12.80;88.70;;;;;;10982522;32;20025;-73
2022/11/16 08:10:18;;;;;;;10.98;6.68;;;12.70;89.00;;;;;;10982417;32;20022;-74
2022/11/16 08:16:21;;;;;;;13.57;8.07;;;12.80;89.30;;;;;;10982227;32;20011;-74
2022/11/16 08:22:26;;;;;;;13.13;8.68;;;12.80;88.80;;;;;;10520294;27;13277246;-74
2022/11/16 08:28:29;;;;;;;11.65;7.05;;;12.70;89.00;;;;;;10828119;32;20067;-74
2022/11/16 08:34:33;;;;;;;9.45;6.30;;;12.70;89.00;;;;;;10828731;32;20405;-74
2022/11/16 08:40:37;;;;;;;13.07;9.40;;;12.80;89.30;;;;;;10827744;32;20397;-73
2022/11/16 08:46:39;;;;;;;10.90;6.87;;;13.20;89.30;;;;;;10831889;32;20403;-75
2022/11/16 08:52:42;;;;;;;9.05;5.40;;;13.50;89.00;;;;;;10904917;32;20368;-75
2022/11/16 08:58:52;;;;;;;9.90;6.12;;;13.70;88.50;;;;;;10901777;32;20066;-74
2022/11/16 09:04:54;;;;;;;10.73;7.07;;;13.60;88.70;;;;;;10904961;32;20360;-74
2022/11/16 09:10:57;;;;;;;10.70;7.93;;;13.80;88.80;;;;;;10891488;32;20117;-75
2022/11/16 09:16:59;;;;;;;9.55;6.03;;;13.90;88.40;;;;;;10904716;32;20415;-75
2022/11/16 09:23:01;;;;;;;9.15;5.72;;;13.60;88.50;;;;;;10904762;32;20027;-74
2022/11/16 09:29:04;;;;;;;9.88;7.80;;;13.40;88.70;;;;;;10904248;32;20391;-74
2022/11/16 09:35:16;;;;;;;17.48;13.93;;;13.20;88.80;;;;;;10904234;32;20332;-75
2022/11/16 09:41:28;;;;;;;12.25;9.50;;;13.00;88.80;;;;;;10901495;32;20057;-74
2022/11/16 09:47:58;;;;;;;17.30;11.43;;;12.90;89.00;;;;;;10903958;32;20048;-75
2022/11/16 09:54:16;;;;;;;12.35;6.32;;;13.00;89.10;;;;;;10882941;32;20063;-74
2022/11/16 10:00:24;;;;;;;9.60;6.00;;;13.10;89.30;;;;;;10903765;32;20027;-74
2022/11/16 10:06:56;;;;;;;9.45;7.40;;;13.30;89.10;;;;;;10903005;32;20027;-74
2022/11/16 10:13:33;;;;;;;10.55;6.70;;;13.40;88.80;;;;;;10903315;32;20011;-75
2022/11/16 10:19:45;;;;;;;8.23;4.43;;;13.50;88.90;;;;;;10897412;32;20069;-74
2022/11/16 10:25:56;;;;;;;13.18;7.40;;;13.50;89.00;;;;;;10890056;32;20023;-74
2022/11/16 10:32:11;;;;;;;9.88;7.35;;;13.40;89.10;;;;;;10903347;32;20312;-75
2022/11/16 10:38:17;;;;;;;12.05;8.23;;;13.40;88.90;;;;;;10900289;32;20023;-76
2022/11/16 10:44:43;;;;;;;12.45;9.40;;;13.30;88.90;;;;;;10903013;32;20043;-76
2022/11/16 10:50:48;;;;;;;12.00;7.55;;;13.30;88.80;;;;;;10906634;32;20294;-76
2022/11/16 10:57:12;;;;;;;10.30;7.07;;;13.20;89.00;;;;;;10909502;32;20384;-76
2022/11/16 11:03:29;;;;;;;9.45;7.00;;;13.30;89.10;;;;;;10895757;32;20015;-75
2022/11/16 11:09:37;;;;;;;11.40;7.50;;;13.40;89.00;;;;;;10909282;32;20019;-75
2022/11/16 11:15:41;;;;;;;9.50;6.10;;;13.50;88.90;;;;;;10905517;32;20073;-75
2022/11/16 11:21:45;;;;;;;15.77;12.45;;;13.70;89.20;;;;;;10907756;32;20027;-76
2022/11/16 11:27:49;;;;;;;9.68;6.47;;;13.80;88.50;;;;;;10895180;32;20335;-75
2022/11/16 11:33:53;;;;;;;8.20;5.95;;;13.70;88.70;;;;;;10908385;32;20031;-76
2022/11/16 11:40:26;;;;;;;13.25;9.93;;;13.80;89.00;;;;;;10907745;32;20023;-77
2022/11/16 11:46:32;;;;;;;10.32;7.90;;;13.80;88.40;;;;;;10720735;33;20032;-75
2022/11/16 11:52:56;;;;;;;9.35;7.07;;;13.80;88.70;;;;;;10719187;33;20021;-77
2022/11/16 11:58:59;;;;;;;13.98;11.32;;;13.80;88.50;;;;;;10716081;33;20048;-75
2022/11/16 12:05:13;;;;;;;10.80;6.50;;;13.80;88.50;;;;;;10704437;33;20030;-76
2022/11/16 12:11:41;;;;;;;8.20;5.45;;;13.80;88.40;;;;;;10705725;33;20025;-75
2022/11/16 12:18:24;;;;;;;14.18;10.98;;;14.00;88.50;;;;;;10717883;33;20039;-76
2022/11/16 12:24:41;;;;;;;15.68;9.73;;;14.00;88.30;;;;;;10889925;32;20024;-75
2022/11/16 12:31:20;;;;;;;14.75;9.50;;;13.90;88.20;;;;;;10868724;32;20325;-76
2022/11/16 12:37:40;;;;;;;13.27;9.05;;;13.90;88.20;;;;;;10868669;32;20297;-76
2022/11/16 12:44:01;;;;;;;;;;;13.80;88.20;;;;;;10895507;32;20054;-76
2022/11/16 12:50:11;;;;;;;14.98;8.65;;;13.80;88.20;;;;;;10905529;32;19930;-76
2022/11/16 12:56:24;;;;;;;8.88;5.72;;;13.90;88.10;;;;;;10904616;32;20336;-76
2022/11/16 13:02:28;;;;;;;8.38;5.72;;;14.00;88.20;;;;;;10884770;32;20058;-76
2022/11/16 13:08:41;;;;;;;12.00;8.27;;;14.10;88.00;;;;;;10890479;32;20287;-75
2022/11/16 13:14:47;;;;;;;9.80;6.28;;;14.20;88.00;;;;;;10904207;32;20366;-76
2022/11/16 13:21:06;;;;;;;10.57;8.60;;;14.10;87.80;;;;;;10904548;32;20364;-75
2022/11/16 13:27:30;;;;;;;7.97;3.80;;;14.20;87.80;;;;;;10904384;32;20058;-76
2022/11/16 13:33:46;;;;;;;5.55;3.08;;;14.20;87.90;;;;;;10903253;32;20030;-76
2022/11/16 13:39:57;;;;;;;4.43;2.42;;;14.30;88.00;;;;;;10904108;32;20023;-74
2022/11/16 13:46:00;;;;;;;3.40;2.12;;;14.50;88.00;;;;;;10903901;32;20019;-74
2022/11/16 13:52:08;;;;;;;3.65;2.35;;;14.50;88.10;;;;;;10900926;32;20027;-75
2022/11/16 13:58:20;;;;;;;2.65;1.60;;;14.50;88.10;;;;;;10903730;32;20089;-74
2022/11/16 14:04:54;;;;;;;6.65;4.20;;;14.50;88.30;;;;;;10903736;32;20020;-75
2022/11/16 14:10:56;;;;;;;3.75;1.90;;;14.40;88.30;;;;;;10903662;32;20015;-74
2022/11/16 14:16:58;;;;;;;3.40;2.40;;;14.40;88.40;;;;;;10903601;32;20332;-74
2022/11/16 14:23:13;;;;;;;4.18;2.40;;;14.50;88.60;;;;;;10873546;32;20028;-75
2022/11/16 14:29:51;;;;;;;2.17;1.52;;;14.50;88.40;;;;;;10873298;32;20344;-75
2022/11/16 14:35:53;;;;;;;3.25;2.15;;;14.50;88.50;;;;;;10873194;32;20050;-74
2022/11/16 14:42:02;;;;;;;1.73;1.40;;;14.60;88.70;;;;;;10872645;32;20376;-74
2022/11/16 14:48:19;;;;;;;3.10;2.25;;;14.70;88.50;;;;;;10868555;32;20317;-74
2022/11/16 14:54:31;;;;;;;2.85;1.80;;;14.60;88.50;;;;;;10872536;32;20042;-74
2022/11/16 15:00:34;;;;;;;1.92;1.45;;;14.50;88.60;;;;;;10858904;32;20267;-74
2022/11/16 15:06:45;;;;;;;2.55;1.90;;;14.50;88.80;;;;;;10871453;32;20073;-74
2022/11/16 15:12:52;;;;;;;4.07;1.77;;;14.50;88.80;;;;;;10871705;32;20046;-75
2022/11/16 15:19:01;;;;;;;5.15;3.30;;;14.60;88.80;;;;;;10871546;32;20058;-72
2022/11/16 15:25:34;;;;;;;3.85;2.58;;;14.50;88.50;;;;;;10857899;32;20020;-74
2022/11/16 15:31:41;;;;;;;3.43;2.17;;;14.30;88.60;;;;;;10871877;32;20031;-74
2022/11/16 15:37:43;;;;;;;3.75;1.95;;;14.20;88.70;;;;;;10883452;32;20053;-74
2022/11/16 15:43:58;;;;;;;3.15;1.83;;;14.20;88.80;;;;;;10908367;32;20015;-73
2022/11/16 15:50:00;;;;;;;3.95;2.65;;;14.30;89.00;;;;;;10908050;32;20063;-73
2022/11/16 15:56:25;;;;;;;5.57;3.25;;;14.30;88.90;;;;;;10907793;32;20024;-73
2022/11/16 16:02:49;;;;;;;5.15;2.83;;;14.30;88.70;;;;;;10903189;32;20034;-73
2022/11/16 16:09:03;;;;;;;5.95;4.03;;;14.20;88.80;;;;;;10905291;32;20031;-73
2022/11/16 16:15:35;;;;;;;9.63;7.65;;;14.10;88.90;;;;;;10907044;32;20046;-73
2022/11/16 16:21:43;;;;;;;4.95;2.75;;;14.00;88.90;;;;;;10929178;27;20026;-73
2022/11/16 16:27:45;;;;;;;4.85;3.15;;;13.90;88.90;;;;;;10981869;32;20323;-73
2022/11/16 16:33:48;;;;;;;10.98;7.37;;;13.90;89.00;;;;;;10968351;32;20018;-73
2022/11/16 16:39:53;;;;;;;8.82;5.18;;;14.00;89.10;;;;;;10981327;32;20027;-73
2022/11/16 16:45:58;;;;;;;7.35;4.60;;;14.10;88.80;;;;;;10981144;32;20015;-73
2022/11/16 16:52:01;;;;;;;9.02;5.97;;;14.00;88.90;;;;;;10967737;32;20081;-73
2022/11/16 16:58:04;;;;;;;7.25;5.55;;;14.00;88.70;;;;;;10980699;32;20022;-73
2022/11/16 17:04:06;;;;;;;11.68;8.98;;;13.80;88.80;;;;;;10980760;32;20019;-73
2022/11/16 17:10:09;;;;;;;10.35;6.45;;;13.70;88.90;;;;;;10966738;32;20327;-73
2022/11/16 17:16:11;;;;;;;8.25;5.20;;;13.70;89.00;;;;;;10980308;32;20054;-73
2022/11/16 17:22:14;;;;;;;9.43;7.22;;;13.70;88.90;;;;;;10979943;32;20307;-73
2022/11/16 17:28:16;;;;;;;11.82;8.80;;;13.50;89.00;;;;;;10980016;32;20126;-73
2022/11/16 17:34:19;;;;;;;11.77;8.13;;;13.60;88.90;;;;;;10980452;32;20019;-73
2022/11/16 17:40:21;;;;;;;15.70;7.15;;;13.50;88.90;;;;;;10978264;32;20022;-73
2022/11/16 17:46:24;;;;;;;6.90;5.10;;;13.50;88.80;;;;;;10966091;32;20045;-73
2022/11/16 17:52:28;;;;;;;8.00;6.00;;;13.50;89.00;;;;;;10969312;32;20015;-73
2022/11/16 17:58:31;;;;;;;9.57;6.45;;;13.50;88.90;;;;;;10980483;32;20022;-75
2022/11/16 18:04:33;;;;;;;10.40;8.20;;;13.60;88.70;;;;;;10977546;32;20316;-74
2022/11/16 18:10:35;;;;;;;14.82;11.70;;;13.60;88.70;;;;;;10948942;32;20014;-75
2022/11/16 18:16:41;;;;;;;11.40;8.70;;;13.70;88.60;;;;;;10944171;32;20031;-75
2022/11/16 18:22:51;;;;;;;8.90;6.62;;;13.60;88.50;;;;;;10948334;32;20077;-75
2022/11/16 18:28:53;;;;;;;9.43;7.05;;;13.50;88.50;;;;;;10948554;32;20045;-75
2022/11/16 18:34:55;;;;;;;8.70;6.07;;;13.40;88.70;;;;;;10948382;32;20019;-75
2022/11/16 18:41:18;;;;;;;9.02;6.10;;;13.40;88.50;;;;;;10948010;32;20323;-75
2022/11/16 18:47:32;;;;;;;8.43;5.12;;;13.30;88.60;;;;;;10947968;32;20019;-75
2022/11/16 18:53:43;;;;;;;14.15;10.43;;;13.30;88.70;;;;;;10947695;32;20045;-76
2022/11/16 18:59:46;;;;;;;8.15;5.20;;;13.20;88.80;;;;;;10947146;32;20039;-75
2022/11/16 19:06:00;;;;;;;6.72;4.55;;;13.20;88.70;;;;;;10947119;32;20019;-73
2022/11/16 19:12:02;;;;;;;15.48;12.37;;;13.20;88.70;;;;;;10932316;32;20023;-73
2022/11/16 19:18:04;;;;;;;11.00;7.12;;;13.10;88.80;;;;;;10944242;32;20027;-73
2022/11/16 19:24:06;;;;;;;15.07;11.48;;;13.10;88.70;;;;;;10946268;32;20347;-73
2022/11/16 19:30:09;;;;;;;11.85;8.90;;;13.00;88.60;;;;;;10946244;32;20019;-73
2022/11/16 19:36:13;;;;;;;12.02;8.68;;;13.00;88.60;;;;;;10945967;32;20069;-74
2022/11/16 19:42:25;;;;;;;10.82;6.97;;;13.00;88.50;;;;;;10945666;32;20069;-73
2022/11/16 19:48:28;;;;;;;8.75;5.70;;;12.90;88.50;;;;;;10945513;32;20277;-75
2022/11/16 19:54:35;;;;;;;18.33;13.82;;;13.00;88.50;;;;;;10931642;32;20023;-76
2022/11/16 20:00:40;;;;;;;8.65;5.80;;;13.00;88.50;;;;;;10945598;32;20380;-75
2022/11/16 20:07:01;;;;;;;9.60;5.78;;;13.00;88.40;;;;;;10944726;32;20031;-75
2022/11/16 20:13:03;;;;;;;11.48;8.02;;;13.00;88.40;;;;;;10944497;32;20015;-75
2022/11/16 20:19:09;;;;;;;12.45;8.38;;;13.00;88.40;;;;;;10930774;32;20046;-75
2022/11/16 20:25:11;;;;;;;14.35;9.60;;;12.90;88.40;;;;;;10943847;32;20015;-75
2022/11/16 20:31:15;;;;;;;17.35;10.65;;;13.00;88.50;;;;;;10943950;32;20046;-75
2022/11/16 20:37:17;;;;;;;9.05;6.15;;;13.00;88.50;;;;;;10943900;32;20391;-75
2022/11/16 20:43:19;;;;;;;11.10;7.68;;;13.00;88.40;;;;;;10943581;32;20019;-75
2022/11/16 20:49:21;;;;;;;24.95;16.33;;;13.00;88.40;;;;;;10945452;32;20119;-75
2022/11/16 20:55:23;;;;;;;14.82;9.95;;;12.90;88.30;;;;;;10943287;32;20041;-75
2022/11/16 21:01:51;;;;;;;14.68;9.30;;;12.80;88.40;;;;;;10942679;32;20027;-75
2022/11/16 21:07:53;;;;;;;12.15;6.60;;;13.00;88.50;;;;;;10942436;32;20045;-75
2022/11/16 21:20:16;;;;;;;8.10;4.97;;;13.00;88.40;;;;;;10947408;32;20403;-75
2022/11/16 21:26:21;;;;;;;8.35;5.10;;;13.20;88.50;;;;;;10980747;32;20022;-75
2022/11/16 21:32:25;;;;;;;9.82;6.40;;;13.20;88.40;;;;;;10978993;32;20022;-75
2022/11/16 21:38:31;;;;;;;9.85;6.55;;;13.20;88.40;;;;;;10979113;32;20035;-75
2022/11/16 21:44:42;;;;;;;9.45;5.78;;;13.00;88.40;;;;;;10979468;32;20520;-75
2022/11/16 21:50:44;;;;;;;11.18;8.27;;;13.00;88.50;;;;;;10979514;32;20049;-75
2022/11/16 21:56:46;;;;;;;12.35;8.95;;;12.90;88.20;;;;;;10976471;32;20019;-75
2022/11/16 22:02:48;;;;;;;12.30;7.80;;;12.80;88.20;;;;;;10976945;32;20026;-75
2022/11/16 22:08:51;;;;;;;17.58;11.82;;;12.70;88.30;;;;;;10977600;32;20022;-75
2022/11/16 22:14:54;;;;;;;16.20;10.93;;;12.70;88.20;;;;;;10978878;32;20076;-75
2022/11/16 22:20:55;;;;;;;18.80;11.38;;;12.60;88.10;;;;;;10975307;32;20061;-75
2022/11/16 22:26:58;;;;;;;12.95;8.63;;;12.60;88.20;;;;;;10978872;32;20342;-74
2022/11/16 22:33:00;;;;;;;11.07;8.10;;;12.70;88.40;;;;;;10978767;32;20326;-75
2022/11/16 22:39:03;;;;;;;11.75;6.35;;;12.90;88.30;;;;;;10978703;32;20079;-73
2022/11/16 22:45:06;;;;;;;16.35;10.30;;;12.90;88.10;;;;;;10980488;32;20022;-73
2022/11/16 22:51:23;;;;;;;14.10;9.02;;;13.00;88.40;;;;;;10981890;32;20022;-73
2022/11/16 22:57:25;;;;;;;9.85;4.80;;;13.10;88.10;;;;;;10981431;32;20034;-73
2022/11/16 23:03:28;;;;;;;8.88;5.22;;;13.00;88.30;;;;;;10985000;32;20026;-73
2022/11/16 23:09:31;;;;;;;12.05;6.65;;;13.00;88.30;;;;;;10984806;32;20026;-73
2022/11/16 23:15:49;;;;;;;8.32;5.28;;;13.00;88.00;;;;;;10984711;32;20054;-73
2022/11/16 23:28:32;;;;;;;8.65;5.82;;;12.80;88.30;;;;;;10904777;32;20081;-73
2022/11/16 23:34:34;;;;;;;9.52;6.03;;;13.00;88.10;;;;;;10905568;32;20057;-73
2022/11/16 23:40:38;;;;;;;9.02;5.97;;;12.80;88.00;;;;;;10905330;32;20039;-74
2022/11/16 23:46:41;;;;;;;9.05;6.30;;;12.90;88.10;;;;;;10905106;32;20036;-74
2022/11/16 23:52:43;;;;;;;8.95;5.47;;;12.80;87.90;;;;;;10904816;32;20065;-73
2022/11/16 23:58:45;;;;;;;10.65;6.90;;;12.80;88.00;;;;;;10959421;32;20053;-73
